首页
METAR-TAF:

METAR-TAF

机场 :

Smithers, 不列颠哥伦比亚, 加拿大

纬度: 54-49N, 经度: 127-11W, 海拔: 523米

当前天气观测

该预报发布于41分钟前的10:00 UTC
静风
温度 2°C
湿度 100%
气压 1005 hPa
能見度: 14.5公里
少量云层高于200英尺
阴天层高于2000英尺
小雨

METAR: CYYD 151000Z AUTO 00000KT 9SM -RA FEW002 OVC020 02/02 A2967 RMK SLP063

时间: 02:41 (10:41 UTC)

预报

该预报发布于10小时和3分钟前的00:38 UTC
预报有效从15日的 01点(UTC)到 15日的 06点(UTC)
风速6节,风向南转南东
能見度: 10公里
散云层高于2000英尺
多云层高于5000英尺
短暂存在
从 15日的 01点(UTC)到 15日的 06点(UTC)
能見度: 6.4公里
散云层高于800英尺
多云层高于2000英尺
小阵雨, 轻雾

TAF: CYYD 150038Z 1501/1506 15006KT P6SM SCT020 BKN050 TEMPO 1501/1506 4SM -SHRA BR SCT008 BKN020 RMK NXT FCST WILL BE ISSUED AT 151345Z

超过4000个机场的气象观测和天气预报(METAR&TAF报告)。

可查询的气象台以黄色和红色小点在地图上表示。

将鼠标移到小点上方,可查看气象台名称。

然后点击查看天气观测和预报。

如需切换地图:点击带黑十字的绿色按钮放大地图;点击带横线的绿色按钮缩小地图;或者点击绿色箭头查看邻近地区的地图。


METAR-TAF: